sensor_id;sensor_type;location;lat;lon;timestamp;P1;durP1;ratioP1;P2;durP2;ratioP2
42760;SDS011;31672;47.638;19.026;2022-07-23T00:00:33;4.50;;;3.50;;
42760;SDS011;31672;47.638;19.026;2022-07-23T00:05:40;5.78;;;3.67;;
42760;SDS011;31672;47.638;19.026;2022-07-23T00:10:44;5.57;;;3.55;;
42760;SDS011;31672;47.638;19.026;2022-07-23T00:15:47;5.00;;;3.15;;
42760;SDS011;31672;47.638;19.026;2022-07-23T00:20:50;5.53;;;3.50;;
42760;SDS011;31672;47.638;19.026;2022-07-23T00:25:53;3.85;;;3.38;;
42760;SDS011;31672;47.638;19.026;2022-07-23T00:30:56;3.88;;;3.40;;
42760;SDS011;31672;47.638;19.026;2022-07-23T00:35:59;6.30;;;3.55;;
42760;SDS011;31672;47.638;19.026;2022-07-23T00:41:02;6.45;;;3.20;;
42760;SDS011;31672;47.638;19.026;2022-07-23T00:46:05;7.50;;;3.50;;
42760;SDS011;31672;47.638;19.026;2022-07-23T00:51:08;4.65;;;3.50;;
42760;SDS011;31672;47.638;19.026;2022-07-23T00:56:11;5.47;;;3.60;;
42760;SDS011;31672;47.638;19.026;2022-07-23T01:01:14;6.00;;;3.72;;
42760;SDS011;31672;47.638;19.026;2022-07-23T01:06:17;3.95;;;3.25;;
42760;SDS011;31672;47.638;19.026;2022-07-23T01:11:21;5.60;;;3.75;;
42760;SDS011;31672;47.638;19.026;2022-07-23T01:16:26;6.10;;;3.40;;
42760;SDS011;31672;47.638;19.026;2022-07-23T01:21:29;4.40;;;3.53;;
42760;SDS011;31672;47.638;19.026;2022-07-23T01:26:32;6.50;;;3.30;;
42760;SDS011;31672;47.638;19.026;2022-07-23T01:31:36;4.40;;;3.50;;
42760;SDS011;31672;47.638;19.026;2022-07-23T01:36:39;5.50;;;3.30;;
42760;SDS011;31672;47.638;19.026;2022-07-23T01:41:42;3.58;;;3.28;;
42760;SDS011;31672;47.638;19.026;2022-07-23T01:46:50;4.53;;;3.60;;
42760;SDS011;31672;47.638;19.026;2022-07-23T01:51:54;7.75;;;3.58;;
42760;SDS011;31672;47.638;19.026;2022-07-23T01:57:03;7.83;;;3.87;;
42760;SDS011;31672;47.638;19.026;2022-07-23T02:02:07;7.47;;;4.13;;
42760;SDS011;31672;47.638;19.026;2022-07-23T02:07:11;5.53;;;3.78;;
42760;SDS011;31672;47.638;19.026;2022-07-23T02:12:15;3.63;;;3.28;;
42760;SDS011;31672;47.638;19.026;2022-07-23T02:17:18;4.90;;;3.85;;
42760;SDS011;31672;47.638;19.026;2022-07-23T02:22:21;6.22;;;3.78;;
42760;SDS011;31672;47.638;19.026;2022-07-23T02:27:24;4.75;;;3.50;;
42760;SDS011;31672;47.638;19.026;2022-07-23T02:32:27;5.25;;;3.97;;
42760;SDS011;31672;47.638;19.026;2022-07-23T02:37:31;5.80;;;3.88;;
42760;SDS011;31672;47.638;19.026;2022-07-23T02:42:34;6.65;;;3.95;;
42760;SDS011;31672;47.638;19.026;2022-07-23T02:47:37;4.78;;;3.92;;
42760;SDS011;31672;47.638;19.026;2022-07-23T02:52:40;4.88;;;3.60;;
42760;SDS011;31672;47.638;19.026;2022-07-23T02:57:43;5.47;;;3.67;;
42760;SDS011;31672;47.638;19.026;2022-07-23T03:02:46;5.72;;;4.03;;
42760;SDS011;31672;47.638;19.026;2022-07-23T03:07:49;6.65;;;4.35;;
42760;SDS011;31672;47.638;19.026;2022-07-23T03:12:52;5.68;;;3.78;;
42760;SDS011;31672;47.638;19.026;2022-07-23T03:17:55;4.15;;;3.53;;
42760;SDS011;31672;47.638;19.026;2022-07-23T03:22:58;4.30;;;3.30;;
42760;SDS011;31672;47.638;19.026;2022-07-23T03:28:01;4.38;;;3.20;;
42760;SDS011;31672;47.638;19.026;2022-07-23T03:33:04;4.00;;;2.90;;
42760;SDS011;31672;47.638;19.026;2022-07-23T03:38:07;3.42;;;2.95;;
42760;SDS011;31672;47.638;19.026;2022-07-23T03:43:10;5.70;;;3.55;;
42760;SDS011;31672;47.638;19.026;2022-07-23T03:48:13;3.88;;;3.10;;
42760;SDS011;31672;47.638;19.026;2022-07-23T03:53:15;4.70;;;3.38;;
42760;SDS011;31672;47.638;19.026;2022-07-23T03:58:18;6.05;;;5.38;;
42760;SDS011;31672;47.638;19.026;2022-07-23T04:03:21;6.45;;;3.80;;
42760;SDS011;31672;47.638;19.026;2022-07-23T04:08:24;3.67;;;3.25;;
42760;SDS011;31672;47.638;19.026;2022-07-23T04:13:28;4.47;;;3.28;;
42760;SDS011;31672;47.638;19.026;2022-07-23T04:18:31;4.15;;;3.67;;
42760;SDS011;31672;47.638;19.026;2022-07-23T04:23:34;4.63;;;3.22;;
42760;SDS011;31672;47.638;19.026;2022-07-23T04:28:36;4.78;;;3.58;;
42760;SDS011;31672;47.638;19.026;2022-07-23T04:33:39;10.23;;;3.33;;
42760;SDS011;31672;47.638;19.026;2022-07-23T04:38:42;7.32;;;3.50;;
42760;SDS011;31672;47.638;19.026;2022-07-23T04:43:45;5.72;;;3.80;;
42760;SDS011;31672;47.638;19.026;2022-07-23T04:48:48;5.35;;;3.72;;
42760;SDS011;31672;47.638;19.026;2022-07-23T04:53:51;4.07;;;3.45;;
42760;SDS011;31672;47.638;19.026;2022-07-23T04:58:54;7.57;;;4.30;;
42760;SDS011;31672;47.638;19.026;2022-07-23T05:03:57;5.65;;;3.65;;
42760;SDS011;31672;47.638;19.026;2022-07-23T05:09:00;6.00;;;4.00;;
42760;SDS011;31672;47.638;19.026;2022-07-23T05:14:03;5.80;;;4.22;;
42760;SDS011;31672;47.638;19.026;2022-07-23T05:19:06;5.00;;;3.55;;
42760;SDS011;31672;47.638;19.026;2022-07-23T05:24:09;5.97;;;3.72;;
42760;SDS011;31672;47.638;19.026;2022-07-23T05:29:12;5.70;;;3.65;;
42760;SDS011;31672;47.638;19.026;2022-07-23T05:34:15;3.95;;;3.55;;
42760;SDS011;31672;47.638;19.026;2022-07-23T05:39:19;4.85;;;3.53;;
42760;SDS011;31672;47.638;19.026;2022-07-23T05:44:22;6.50;;;3.63;;
42760;SDS011;31672;47.638;19.026;2022-07-23T05:49:25;7.68;;;4.18;;
42760;SDS011;31672;47.638;19.026;2022-07-23T05:54:28;5.82;;;3.92;;
42760;SDS011;31672;47.638;19.026;2022-07-23T05:59:31;4.10;;;3.10;;
42760;SDS011;31672;47.638;19.026;2022-07-23T06:04:34;5.05;;;3.20;;
42760;SDS011;31672;47.638;19.026;2022-07-23T06:09:36;9.55;;;3.97;;
42760;SDS011;31672;47.638;19.026;2022-07-23T06:14:40;7.30;;;3.72;;
42760;SDS011;31672;47.638;19.026;2022-07-23T06:19:43;8.73;;;3.58;;
42760;SDS011;31672;47.638;19.026;2022-07-23T06:24:46;5.50;;;3.25;;
42760;SDS011;31672;47.638;19.026;2022-07-23T06:29:49;5.30;;;3.20;;
42760;SDS011;31672;47.638;19.026;2022-07-23T06:34:52;6.20;;;2.90;;
42760;SDS011;31672;47.638;19.026;2022-07-23T06:39:55;7.78;;;3.88;;
42760;SDS011;31672;47.638;19.026;2022-07-23T06:44:59;6.70;;;3.10;;
42760;SDS011;31672;47.638;19.026;2022-07-23T06:50:02;7.00;;;3.22;;
42760;SDS011;31672;47.638;19.026;2022-07-23T06:55:05;5.57;;;3.00;;
42760;SDS011;31672;47.638;19.026;2022-07-23T07:00:09;5.28;;;2.92;;
42760;SDS011;31672;47.638;19.026;2022-07-23T07:05:12;4.75;;;3.00;;
42760;SDS011;31672;47.638;19.026;2022-07-23T07:10:15;7.80;;;3.13;;
42760;SDS011;31672;47.638;19.026;2022-07-23T07:15:19;5.43;;;3.00;;
42760;SDS011;31672;47.638;19.026;2022-07-23T07:20:22;12.57;;;4.07;;
42760;SDS011;31672;47.638;19.026;2022-07-23T07:25:25;15.63;;;10.35;;
42760;SDS011;31672;47.638;19.026;2022-07-23T07:30:29;7.63;;;4.60;;
42760;SDS011;31672;47.638;19.026;2022-07-23T07:35:35;8.70;;;4.20;;
42760;SDS011;31672;47.638;19.026;2022-07-23T07:40:38;8.38;;;3.67;;
42760;SDS011;31672;47.638;19.026;2022-07-23T07:45:41;7.65;;;3.60;;
42760;SDS011;31672;47.638;19.026;2022-07-23T07:50:44;5.93;;;3.00;;
42760;SDS011;31672;47.638;19.026;2022-07-23T07:55:47;5.65;;;3.50;;
42760;SDS011;31672;47.638;19.026;2022-07-23T08:00:53;5.55;;;3.42;;
42760;SDS011;31672;47.638;19.026;2022-07-23T08:05:56;4.82;;;2.92;;
42760;SDS011;31672;47.638;19.026;2022-07-23T08:10:59;7.93;;;3.28;;
42760;SDS011;31672;47.638;19.026;2022-07-23T08:16:02;6.13;;;3.25;;
42760;SDS011;31672;47.638;19.026;2022-07-23T08:21:09;6.95;;;3.25;;
42760;SDS011;31672;47.638;19.026;2022-07-23T08:26:13;7.53;;;3.35;;
42760;SDS011;31672;47.638;19.026;2022-07-23T08:31:16;9.82;;;3.20;;
42760;SDS011;31672;47.638;19.026;2022-07-23T08:36:19;4.25;;;2.97;;
42760;SDS011;31672;47.638;19.026;2022-07-23T08:41:22;6.70;;;3.05;;
42760;SDS011;31672;47.638;19.026;2022-07-23T08:46:25;5.28;;;3.30;;
42760;SDS011;31672;47.638;19.026;2022-07-23T08:51:29;6.85;;;2.92;;
42760;SDS011;31672;47.638;19.026;2022-07-23T08:56:34;6.22;;;3.28;;
42760;SDS011;31672;47.638;19.026;2022-07-23T09:01:37;7.25;;;3.53;;
42760;SDS011;31672;47.638;19.026;2022-07-23T09:06:40;9.75;;;3.63;;
42760;SDS011;31672;47.638;19.026;2022-07-23T09:11:46;6.72;;;3.35;;
42760;SDS011;31672;47.638;19.026;2022-07-23T09:16:50;5.40;;;3.17;;
42760;SDS011;31672;47.638;19.026;2022-07-23T09:21:53;4.82;;;3.53;;
42760;SDS011;31672;47.638;19.026;2022-07-23T09:26:56;7.75;;;4.13;;
42760;SDS011;31672;47.638;19.026;2022-07-23T09:32:00;5.30;;;3.25;;
42760;SDS011;31672;47.638;19.026;2022-07-23T09:37:13;6.18;;;3.00;;
42760;SDS011;31672;47.638;19.026;2022-07-23T09:42:20;6.90;;;3.40;;
42760;SDS011;31672;47.638;19.026;2022-07-23T09:47:29;5.93;;;3.50;;
42760;SDS011;31672;47.638;19.026;2022-07-23T09:52:35;5.80;;;3.50;;
42760;SDS011;31672;47.638;19.026;2022-07-23T09:57:50;6.40;;;3.45;;
42760;SDS011;31672;47.638;19.026;2022-07-23T10:02:56;5.72;;;3.15;;
42760;SDS011;31672;47.638;19.026;2022-07-23T10:08:01;6.22;;;3.00;;
42760;SDS011;31672;47.638;19.026;2022-07-23T10:13:05;4.35;;;3.05;;
42760;SDS011;31672;47.638;19.026;2022-07-23T10:18:12;5.05;;;2.97;;
42760;SDS011;31672;47.638;19.026;2022-07-23T10:40:20;5.35;;;3.30;;
42760;SDS011;31672;47.638;19.026;2022-07-23T10:45:31;8.17;;;3.90;;
42760;SDS011;31672;47.638;19.026;2022-07-23T10:50:38;6.90;;;4.50;;
42760;SDS011;31672;47.638;19.026;2022-07-23T10:55:42;7.57;;;3.92;;
42760;SDS011;31672;47.638;19.026;2022-07-23T11:00:51;7.10;;;3.88;;
42760;SDS011;31672;47.638;19.026;2022-07-23T11:05:54;4.43;;;4.03;;
42760;SDS011;31672;47.638;19.026;2022-07-23T11:16:19;4.35;;;3.95;;
42760;SDS011;31672;47.638;19.026;2022-07-23T11:42:06;5.05;;;3.13;;
42760;SDS011;31672;47.638;19.026;2022-07-23T11:47:10;5.38;;;3.38;;
42760;SDS011;31672;47.638;19.026;2022-07-23T11:52:16;6.23;;;3.67;;
42760;SDS011;31672;47.638;19.026;2022-07-23T11:57:19;6.10;;;3.70;;
42760;SDS011;31672;47.638;19.026;2022-07-23T12:02:34;5.65;;;3.90;;
42760;SDS011;31672;47.638;19.026;2022-07-23T12:07:47;6.82;;;4.53;;
42760;SDS011;31672;47.638;19.026;2022-07-23T12:12:57;5.25;;;3.63;;
42760;SDS011;31672;47.638;19.026;2022-07-23T12:18:07;6.22;;;4.25;;
42760;SDS011;31672;47.638;19.026;2022-07-23T12:23:14;4.07;;;3.60;;
42760;SDS011;31672;47.638;19.026;2022-07-23T12:28:26;7.65;;;3.42;;
42760;SDS011;31672;47.638;19.026;2022-07-23T12:33:34;4.10;;;3.67;;
42760;SDS011;31672;47.638;19.026;2022-07-23T12:38:41;4.60;;;3.60;;
42760;SDS011;31672;47.638;19.026;2022-07-23T12:43:48;5.30;;;3.60;;
42760;SDS011;31672;47.638;19.026;2022-07-23T12:48:52;4.78;;;3.90;;
42760;SDS011;31672;47.638;19.026;2022-07-23T12:53:58;4.53;;;4.00;;
42760;SDS011;31672;47.638;19.026;2022-07-23T12:59:12;4.78;;;4.30;;
42760;SDS011;31672;47.638;19.026;2022-07-23T13:04:38;7.53;;;4.20;;
42760;SDS011;31672;47.638;19.026;2022-07-23T13:09:42;5.53;;;3.88;;
42760;SDS011;31672;47.638;19.026;2022-07-23T13:14:45;6.28;;;3.72;;
42760;SDS011;31672;47.638;19.026;2022-07-23T13:19:48;4.45;;;3.58;;
42760;SDS011;31672;47.638;19.026;2022-07-23T13:24:51;5.47;;;3.55;;
42760;SDS011;31672;47.638;19.026;2022-07-23T13:29:54;3.72;;;3.05;;
42760;SDS011;31672;47.638;19.026;2022-07-23T13:34:57;5.30;;;3.70;;
42760;SDS011;31672;47.638;19.026;2022-07-23T13:40:00;8.43;;;3.97;;
42760;SDS011;31672;47.638;19.026;2022-07-23T13:45:19;5.28;;;3.88;;
42760;SDS011;31672;47.638;19.026;2022-07-23T13:50:22;4.32;;;3.67;;
42760;SDS011;31672;47.638;19.026;2022-07-23T13:55:29;6.50;;;3.70;;
42760;SDS011;31672;47.638;19.026;2022-07-23T14:00:34;3.70;;;3.40;;
42760;SDS011;31672;47.638;19.026;2022-07-23T14:05:54;5.40;;;3.70;;
42760;SDS011;31672;47.638;19.026;2022-07-23T14:10:58;6.03;;;3.30;;
42760;SDS011;31672;47.638;19.026;2022-07-23T14:16:01;6.93;;;3.83;;
42760;SDS011;31672;47.638;19.026;2022-07-23T14:21:05;6.63;;;3.17;;
42760;SDS011;31672;47.638;19.026;2022-07-23T14:26:09;5.55;;;3.75;;
42760;SDS011;31672;47.638;19.026;2022-07-23T14:31:12;6.07;;;3.20;;
42760;SDS011;31672;47.638;19.026;2022-07-23T14:36:22;6.25;;;3.67;;
42760;SDS011;31672;47.638;19.026;2022-07-23T14:41:25;4.03;;;3.30;;
42760;SDS011;31672;47.638;19.026;2022-07-23T14:46:29;5.05;;;3.15;;
42760;SDS011;31672;47.638;19.026;2022-07-23T14:51:32;4.45;;;3.03;;
42760;SDS011;31672;47.638;19.026;2022-07-23T14:56:36;4.30;;;3.25;;
42760;SDS011;31672;47.638;19.026;2022-07-23T15:01:39;5.13;;;3.25;;
42760;SDS011;31672;47.638;19.026;2022-07-23T15:06:42;8.07;;;3.33;;
42760;SDS011;31672;47.638;19.026;2022-07-23T15:11:47;5.20;;;3.75;;
42760;SDS011;31672;47.638;19.026;2022-07-23T15:16:50;7.30;;;3.58;;
42760;SDS011;31672;47.638;19.026;2022-07-23T15:22:13;11.90;;;4.13;;
42760;SDS011;31672;47.638;19.026;2022-07-23T15:27:16;6.40;;;3.90;;
42760;SDS011;31672;47.638;19.026;2022-07-23T15:32:20;4.80;;;3.22;;
42760;SDS011;31672;47.638;19.026;2022-07-23T15:37:27;8.52;;;3.53;;
42760;SDS011;31672;47.638;19.026;2022-07-23T15:42:31;5.10;;;3.55;;
42760;SDS011;31672;47.638;19.026;2022-07-23T15:47:34;22.35;;;8.50;;
42760;SDS011;31672;47.638;19.026;2022-07-23T15:52:37;17.42;;;7.75;;
42760;SDS011;31672;47.638;19.026;2022-07-23T15:57:40;12.02;;;7.13;;
42760;SDS011;31672;47.638;19.026;2022-07-23T16:02:43;9.75;;;7.18;;
42760;SDS011;31672;47.638;19.026;2022-07-23T16:07:46;11.00;;;7.00;;
42760;SDS011;31672;47.638;19.026;2022-07-23T16:12:49;22.88;;;8.10;;
42760;SDS011;31672;47.638;19.026;2022-07-23T16:17:56;11.02;;;6.68;;
42760;SDS011;31672;47.638;19.026;2022-07-23T16:23:00;7.60;;;6.80;;
42760;SDS011;31672;47.638;19.026;2022-07-23T16:28:03;9.02;;;7.25;;
42760;SDS011;31672;47.638;19.026;2022-07-23T16:33:08;8.30;;;7.60;;
42760;SDS011;31672;47.638;19.026;2022-07-23T16:38:11;10.57;;;8.20;;
42760;SDS011;31672;47.638;19.026;2022-07-23T16:43:14;12.93;;;7.10;;
42760;SDS011;31672;47.638;19.026;2022-07-23T16:48:17;11.85;;;7.35;;
42760;SDS011;31672;47.638;19.026;2022-07-23T16:53:21;8.18;;;6.55;;
42760;SDS011;31672;47.638;19.026;2022-07-23T16:58:24;9.57;;;7.03;;
42760;SDS011;31672;47.638;19.026;2022-07-23T17:03:27;8.68;;;7.78;;
42760;SDS011;31672;47.638;19.026;2022-07-23T17:08:31;8.20;;;7.20;;
42760;SDS011;31672;47.638;19.026;2022-07-23T17:13:34;9.38;;;7.40;;
42760;SDS011;31672;47.638;19.026;2022-07-23T17:18:37;7.53;;;6.72;;
42760;SDS011;31672;47.638;19.026;2022-07-23T17:23:40;7.70;;;7.00;;
42760;SDS011;31672;47.638;19.026;2022-07-23T17:28:43;9.75;;;7.65;;
42760;SDS011;31672;47.638;19.026;2022-07-23T17:33:46;8.93;;;7.50;;
42760;SDS011;31672;47.638;19.026;2022-07-23T17:38:50;9.30;;;8.30;;
42760;SDS011;31672;47.638;19.026;2022-07-23T17:43:57;8.80;;;7.40;;
42760;SDS011;31672;47.638;19.026;2022-07-23T17:49:01;8.55;;;7.43;;
42760;SDS011;31672;47.638;19.026;2022-07-23T17:54:04;7.78;;;6.93;;
42760;SDS011;31672;47.638;19.026;2022-07-23T17:59:07;8.25;;;7.45;;
42760;SDS011;31672;47.638;19.026;2022-07-23T18:04:10;8.05;;;7.22;;
42760;SDS011;31672;47.638;19.026;2022-07-23T18:09:15;7.45;;;6.28;;
42760;SDS011;31672;47.638;19.026;2022-07-23T18:14:20;7.75;;;6.47;;
42760;SDS011;31672;47.638;19.026;2022-07-23T18:19:22;7.03;;;6.20;;
42760;SDS011;31672;47.638;19.026;2022-07-23T18:24:25;7.55;;;6.40;;
42760;SDS011;31672;47.638;19.026;2022-07-23T18:29:31;6.88;;;6.28;;
42760;SDS011;31672;47.638;19.026;2022-07-23T18:34:35;7.53;;;6.80;;
42760;SDS011;31672;47.638;19.026;2022-07-23T18:39:38;14.63;;;13.05;;
42760;SDS011;31672;47.638;19.026;2022-07-23T18:44:41;9.02;;;8.07;;
42760;SDS011;31672;47.638;19.026;2022-07-23T18:49:44;8.43;;;7.57;;
42760;SDS011;31672;47.638;19.026;2022-07-23T18:54:47;8.80;;;7.60;;
42760;SDS011;31672;47.638;19.026;2022-07-23T18:59:50;9.25;;;7.78;;
42760;SDS011;31672;47.638;19.026;2022-07-23T19:04:54;7.68;;;6.95;;
42760;SDS011;31672;47.638;19.026;2022-07-23T19:09:57;8.98;;;7.60;;
42760;SDS011;31672;47.638;19.026;2022-07-23T19:15:00;7.78;;;6.97;;
42760;SDS011;31672;47.638;19.026;2022-07-23T19:20:09;9.13;;;6.90;;
42760;SDS011;31672;47.638;19.026;2022-07-23T19:25:13;9.43;;;7.35;;
42760;SDS011;31672;47.638;19.026;2022-07-23T19:30:16;7.70;;;6.50;;
42760;SDS011;31672;47.638;19.026;2022-07-23T19:35:19;7.75;;;6.70;;
42760;SDS011;31672;47.638;19.026;2022-07-23T19:40:23;8.02;;;7.13;;
42760;SDS011;31672;47.638;19.026;2022-07-23T19:45:27;7.88;;;7.10;;
42760;SDS011;31672;47.638;19.026;2022-07-23T19:50:30;8.40;;;7.47;;
42760;SDS011;31672;47.638;19.026;2022-07-23T19:55:34;8.80;;;7.13;;
42760;SDS011;31672;47.638;19.026;2022-07-23T20:00:37;7.75;;;7.00;;
42760;SDS011;31672;47.638;19.026;2022-07-23T20:05:43;7.90;;;6.82;;
42760;SDS011;31672;47.638;19.026;2022-07-23T20:10:46;6.88;;;6.28;;
42760;SDS011;31672;47.638;19.026;2022-07-23T20:15:49;8.82;;;6.90;;
42760;SDS011;31672;47.638;19.026;2022-07-23T20:20:53;8.75;;;6.30;;
42760;SDS011;31672;47.638;19.026;2022-07-23T20:25:58;7.90;;;6.25;;
42760;SDS011;31672;47.638;19.026;2022-07-23T20:31:02;8.38;;;6.03;;
42760;SDS011;31672;47.638;19.026;2022-07-23T20:36:08;6.82;;;5.90;;
42760;SDS011;31672;47.638;19.026;2022-07-23T20:41:11;6.10;;;5.50;;
42760;SDS011;31672;47.638;19.026;2022-07-23T20:46:14;6.22;;;5.63;;
42760;SDS011;31672;47.638;19.026;2022-07-23T20:51:17;6.65;;;6.05;;
42760;SDS011;31672;47.638;19.026;2022-07-23T20:56:21;7.35;;;5.75;;
42760;SDS011;31672;47.638;19.026;2022-07-23T21:01:24;7.20;;;5.57;;
42760;SDS011;31672;47.638;19.026;2022-07-23T21:06:27;6.97;;;5.43;;
42760;SDS011;31672;47.638;19.026;2022-07-23T21:11:30;5.88;;;4.88;;
42760;SDS011;31672;47.638;19.026;2022-07-23T21:16:33;5.70;;;5.20;;
42760;SDS011;31672;47.638;19.026;2022-07-23T21:21:36;5.50;;;4.90;;
42760;SDS011;31672;47.638;19.026;2022-07-23T21:26:39;6.05;;;5.05;;
42760;SDS011;31672;47.638;19.026;2022-07-23T21:31:42;4.88;;;4.40;;
42760;SDS011;31672;47.638;19.026;2022-07-23T21:36:45;5.72;;;4.78;;
42760;SDS011;31672;47.638;19.026;2022-07-23T21:41:47;5.25;;;4.50;;
42760;SDS011;31672;47.638;19.026;2022-07-23T21:46:50;7.35;;;5.38;;
42760;SDS011;31672;47.638;19.026;2022-07-23T21:51:53;7.60;;;4.97;;
42760;SDS011;31672;47.638;19.026;2022-07-23T21:56:56;5.70;;;4.70;;
42760;SDS011;31672;47.638;19.026;2022-07-23T22:01:59;6.68;;;4.85;;
42760;SDS011;31672;47.638;19.026;2022-07-23T22:07:02;5.38;;;4.85;;
42760;SDS011;31672;47.638;19.026;2022-07-23T22:12:05;6.10;;;5.05;;
42760;SDS011;31672;47.638;19.026;2022-07-23T22:17:09;6.82;;;5.22;;
42760;SDS011;31672;47.638;19.026;2022-07-23T22:22:12;5.97;;;5.10;;
42760;SDS011;31672;47.638;19.026;2022-07-23T22:27:15;6.78;;;5.10;;
42760;SDS011;31672;47.638;19.026;2022-07-23T22:32:19;9.10;;;5.30;;
42760;SDS011;31672;47.638;19.026;2022-07-23T22:37:26;9.23;;;5.40;;
42760;SDS011;31672;47.638;19.026;2022-07-23T22:42:29;5.80;;;5.20;;
42760;SDS011;31672;47.638;19.026;2022-07-23T22:47:32;5.50;;;4.88;;
42760;SDS011;31672;47.638;19.026;2022-07-23T22:52:36;6.35;;;5.28;;
42760;SDS011;31672;47.638;19.026;2022-07-23T22:57:40;6.15;;;5.43;;
42760;SDS011;31672;47.638;19.026;2022-07-23T23:02:43;6.30;;;4.90;;
42760;SDS011;31672;47.638;19.026;2022-07-23T23:07:45;5.68;;;4.95;;
42760;SDS011;31672;47.638;19.026;2022-07-23T23:12:49;7.30;;;5.40;;
42760;SDS011;31672;47.638;19.026;2022-07-23T23:17:51;6.70;;;5.38;;
42760;SDS011;31672;47.638;19.026;2022-07-23T23:22:54;7.50;;;5.57;;
42760;SDS011;31672;47.638;19.026;2022-07-23T23:27:57;6.25;;;5.65;;
42760;SDS011;31672;47.638;19.026;2022-07-23T23:33:00;7.57;;;5.43;;
42760;SDS011;31672;47.638;19.026;2022-07-23T23:38:03;5.97;;;5.38;;
42760;SDS011;31672;47.638;19.026;2022-07-23T23:43:06;7.72;;;5.30;;
42760;SDS011;31672;47.638;19.026;2022-07-23T23:48:09;6.78;;;5.05;;
42760;SDS011;31672;47.638;19.026;2022-07-23T23:53:12;6.45;;;5.25;;
42760;SDS011;31672;47.638;19.026;2022-07-23T23:58:15;6.50;;;5.90;;
